Time;durP1;ratioP1;P1;durP2;ratioP2;P2;SDS_P1;SDS_P2;PMS_P1;PMS_P2;Temp;Humidity;BMP_temperature;BMP_pressure;BME280_temperature;BME280_humidity;BME280_pressure;Samples;Min_cycle;Max_cycle;Signal;HPM_P1;HPM_P2
2020/12/15 00:00:55;;;;;;;60.08;26.65;;;;;;;0.64;82.48;99233.66;2298454;77;21807;-64
2020/12/15 00:03:57;;;;;;;64.62;29.10;;;;;;;0.66;82.39;99231.47;2298580;77;21090;-64
2020/12/15 00:06:59;;;;;;;63.78;28.07;;;;;;;0.63;82.42;99225.06;2298923;77;21712;-64
2020/12/15 00:10:01;;;;;;;69.47;29.10;;;;;;;0.64;82.53;99221.59;2277154;77;21257;-64
2020/12/15 00:13:04;;;;;;;67.35;30.35;;;;;;;0.68;82.41;99214.22;2298540;77;21114;-64
2020/12/15 00:16:06;;;;;;;62.53;26.20;;;;;;;0.59;82.45;99213.48;2298514;77;21277;-65
2020/12/15 00:19:08;;;;;;;66.33;27.95;;;;;;;0.57;82.71;99217.38;2298639;77;21728;-65
2020/12/15 00:22:10;;;;;;;63.45;25.92;;;;;;;0.49;82.61;99213.63;2298955;77;21280;-65
2020/12/15 00:25:12;;;;;;;62.60;27.52;;;;;;;0.42;82.74;99215.87;2301283;77;21273;-64
2020/12/15 00:28:15;;;;;;;62.38;26.75;;;;;;;0.35;82.82;99218.13;2306101;77;21253;-65
2020/12/15 00:31:17;;;;;;;64.47;27.22;;;;;;;0.32;82.94;99219.47;2305782;77;21240;-64
2020/12/15 00:34:20;;;;;;;63.35;27.02;;;;;;;0.32;83.05;99215.14;2305895;77;21114;-64
2020/12/15 00:37:22;;;;;;;59.08;25.25;;;;;;;0.29;83.22;99211.77;2305899;77;21685;-64
2020/12/15 00:40:24;;;;;;;63.70;26.20;;;;;;;0.25;83.31;99211.38;2306149;77;21281;-64
2020/12/15 00:43:26;;;;;;;64.45;25.77;;;;;;;0.25;83.44;99214.81;2306399;77;21149;-64
2020/12/15 00:46:28;;;;;;;60.90;26.30;;;;;;;0.24;83.41;99218.25;2306271;77;21707;-64
2020/12/15 00:49:30;;;;;;;62.80;26.30;;;;;;;0.28;83.48;99221.66;2305872;77;21264;-64
2020/12/15 00:52:33;;;;;;;66.87;27.75;;;;;;;0.21;83.39;99214.42;2306156;77;21122;-65
2020/12/15 00:55:35;;;;;;;68.22;28.23;;;;;;;0.19;83.57;99215.31;2305844;77;21280;-64
2020/12/15 00:58:37;;;;;;;73.97;30.02;;;;;;;0.24;83.65;99222.57;2306397;77;21157;-64
2020/12/15 01:01:39;;;;;;;70.87;29.18;;;;;;;0.26;83.51;99228.14;2306046;77;21616;-64
2020/12/15 01:04:41;;;;;;;71.60;29.82;;;;;;;0.27;83.58;99226.40;2306152;77;21260;-65
2020/12/15 01:07:43;;;;;;;66.33;26.15;;;;;;;0.33;83.57;99225.02;2306356;77;21256;-65
2020/12/15 01:10:45;;;;;;;59.67;25.17;;;;;;;0.25;83.41;99216.09;2275010;77;21727;-65
2020/12/15 01:13:47;;;;;;;65.10;25.77;;;;;;;0.16;83.54;99209.78;2305884;77;21244;-65
2020/12/15 01:16:50;;;;;;;60.03;24.00;;;;;;;0.04;83.78;99208.63;2306373;77;21113;-65
2020/12/15 01:19:52;;;;;;;62.30;25.35;;;;;;;-0.02;83.99;99202.66;2305785;77;21716;-65
2020/12/15 01:22:54;;;;;;;66.65;25.72;;;;;;;-0.06;84.24;99198.44;2306077;77;21245;-65
2020/12/15 01:25:56;;;;;;;60.52;24.55;;;;;;;-0.10;84.28;99201.05;2302147;77;21344;-64
2020/12/15 01:28:58;;;;;;;56.33;23.15;;;;;;;-0.12;84.25;99197.20;2298952;77;21261;-65
2020/12/15 01:32:00;;;;;;;59.05;24.82;;;;;;;-0.10;84.57;99194.59;2298653;77;21280;-65
2020/12/15 01:35:02;;;;;;;56.90;23.15;;;;;;;-0.10;84.47;99198.47;2298480;77;21249;-64
2020/12/15 01:38:05;;;;;;;60.85;24.70;;;;;;;-0.12;84.38;99197.20;2298442;77;21712;-64
2020/12/15 01:41:07;;;;;;;59.90;24.67;;;;;;;-0.13;84.43;99204.53;2298765;77;21700;-64
2020/12/15 01:44:09;;;;;;;56.68;22.90;;;;;;;-0.12;84.63;99206.22;2298708;77;21248;-64
2020/12/15 01:47:11;;;;;;;59.65;22.25;;;;;;;-0.12;84.56;99207.52;2298438;77;21283;-64
2020/12/15 01:50:13;;;;;;;58.17;23.40;;;;;;;-0.15;84.52;99207.55;2298588;77;21707;-65
2020/12/15 01:53:15;;;;;;;54.80;22.80;;;;;;;-0.11;84.36;99212.25;2298695;77;21256;-64
2020/12/15 01:56:18;;;;;;;53.60;20.37;;;;;;;-0.09;84.34;99208.77;2298673;77;21284;-65
2020/12/15 01:59:20;;;;;;;54.35;22.10;;;;;;;-0.08;84.22;99205.31;2298512;77;21272;-65
2020/12/15 02:02:22;;;;;;;51.85;20.12;;;;;;;-0.10;84.41;99207.08;2298414;77;21284;-64
2020/12/15 02:05:24;;;;;;;50.73;21.80;;;;;;;-0.18;84.26;99208.43;2298793;77;21273;-64
2020/12/15 02:08:26;;;;;;;49.77;20.88;;;;;;;-0.20;84.47;99202.90;2298550;77;21304;-65
2020/12/15 02:11:29;;;;;;;47.40;19.65;;;;;;;-0.20;84.43;99204.19;2298392;77;21237;-65
2020/12/15 02:14:31;;;;;;;49.98;19.10;;;;;;;-0.18;84.46;99208.87;2298404;77;21249;-65
2020/12/15 02:17:34;;;;;;;50.20;19.85;;;;;;;-0.11;84.29;99210.96;2298863;77;21276;-65
2020/12/15 02:20:36;;;;;;;49.75;20.88;;;;;;;-0.09;84.05;99213.08;2298345;77;21295;-64
2020/12/15 02:23:38;;;;;;;47.83;19.37;;;;;;;-0.12;84.16;99215.25;2298401;77;21253;-65
2020/12/15 02:26:40;;;;;;;45.45;19.40;;;;;;;-0.14;84.07;99206.69;2291345;77;21151;-64
2020/12/15 02:29:42;;;;;;;48.75;20.35;;;;;;;-0.09;84.18;99210.05;2288977;78;21261;-65
2020/12/15 02:32:44;;;;;;;47.55;18.80;;;;;;;-0.06;84.05;99212.62;2288741;78;21574;-64
2020/12/15 02:35:47;;;;;;;48.08;18.55;;;;;;;-0.06;84.20;99211.33;2288515;78;21143;-64
2020/12/15 02:38:49;;;;;;;50.10;19.62;;;;;;;-0.03;83.88;99206.55;2288982;78;21245;-65
2020/12/15 02:41:51;;;;;;;47.70;19.85;;;;;;;-0.09;83.99;99214.36;2288915;78;21273;-64
2020/12/15 02:44:53;;;;;;;45.75;16.87;;;;;;;-0.13;83.91;99216.14;2288459;78;21108;-65
2020/12/15 02:47:55;;;;;;;44.85;17.98;;;;;;;-0.18;83.96;99216.17;2288516;78;21140;-65
2020/12/15 02:50:57;;;;;;;45.50;16.65;;;;;;;-0.25;83.98;99210.66;2288641;78;21673;-64
2020/12/15 02:53:59;;;;;;;44.38;17.07;;;;;;;-0.25;84.33;99195.64;2288448;78;21119;-65
2020/12/15 02:57:01;;;;;;;45.03;17.52;;;;;;;-0.25;84.09;99198.22;2288953;78;21253;-65
2020/12/15 03:00:03;;;;;;;43.15;17.32;;;;;;;-0.28;84.15;99194.39;2288639;78;21573;-64
2020/12/15 03:03:05;;;;;;;52.58;18.70;;;;;;;-0.32;84.25;99193.55;2288462;78;21103;-65
2020/12/15 03:06:07;;;;;;;45.23;16.55;;;;;;;-0.35;84.63;99187.98;2288948;78;21289;-64
2020/12/15 03:09:10;;;;;;;45.20;17.30;;;;;;;-0.38;84.28;99192.34;2288701;78;21119;-65
2020/12/15 03:12:12;;;;;;;44.90;16.05;;;;;;;-0.39;84.39;99189.33;2288560;78;21272;-65
2020/12/15 03:15:14;;;;;;;42.17;15.90;;;;;;;-0.35;84.33;99197.45;2288418;78;21174;-65
2020/12/15 03:18:16;;;;;;;40.83;16.17;;;;;;;-0.30;84.26;99190.95;2288875;78;21602;-65
2020/12/15 03:21:20;;;;;;;41.28;16.73;;;;;;;-0.48;84.34;99165.80;2288669;78;21146;-64
2020/12/15 03:24:23;;;;;;;45.00;17.12;;;;;;;-0.36;84.23;99201.77;2288807;78;21261;-65
2020/12/15 03:27:25;;;;;;;38.75;14.35;;;;;;;-0.32;84.30;99205.59;2297124;77;21740;-65
2020/12/15 03:30:27;;;;;;;41.33;16.20;;;;;;;-0.38;84.08;99204.78;2298344;77;21304;-65
2020/12/15 03:33:29;;;;;;;40.17;14.93;;;;;;;-0.41;84.08;99211.70;2298359;77;21264;-65
2020/12/15 03:36:31;;;;;;;37.67;15.40;;;;;;;-0.43;84.13;99203.99;2298322;77;21708;-64
2020/12/15 03:39:34;;;;;;;41.15;14.98;;;;;;;-0.39;84.15;99215.98;2298579;77;21541;-65
2020/12/15 03:42:37;;;;;;;40.15;16.27;;;;;;;-0.41;84.10;99211.26;2298147;77;21226;-64
2020/12/15 03:45:39;;;;;;;38.78;16.90;;;;;;;-0.40;84.25;99210.41;2298362;77;21264;-65
2020/12/15 03:48:41;;;;;;;37.93;15.55;;;;;;;-0.40;84.16;99205.25;2298495;77;21700;-65
2020/12/15 03:51:43;;;;;;;40.52;14.68;;;;;;;-0.41;84.31;99207.39;2298483;77;21241;-64
2020/12/15 03:54:45;;;;;;;38.63;16.00;;;;;;;-0.40;84.37;99217.29;2298598;77;21689;-65
2020/12/15 03:57:47;;;;;;;38.23;14.85;;;;;;;-0.37;84.27;99218.55;2298653;77;21250;-64
2020/12/15 04:00:49;;;;;;;39.38;16.25;;;;;;;-0.37;84.12;99216.81;2298505;77;21720;-64
2020/12/15 04:03:51;;;;;;;41.48;16.85;;;;;;;-0.32;84.02;99218.04;2298568;77;21134;-64
2020/12/15 04:06:53;;;;;;;40.83;15.38;;;;;;;-0.27;84.27;99224.02;2298552;77;21261;-64
2020/12/15 04:09:55;;;;;;;39.63;15.90;;;;;;;-0.21;84.03;99214.92;2298610;77;21701;-64
2020/12/15 04:12:57;;;;;;;39.75;17.00;;;;;;;-0.17;84.11;99217.04;2298544;77;21239;-64
2020/12/15 04:15:59;;;;;;;42.88;17.25;;;;;;;-0.10;83.89;99219.09;2298546;77;21708;-65
2020/12/15 04:19:01;;;;;;;40.63;15.70;;;;;;;-0.08;83.52;99208.34;2298628;77;21268;-64
2020/12/15 04:22:04;;;;;;;40.00;15.85;;;;;;;-0.08;83.52;99208.34;2298957;77;21150;-64
2020/12/15 04:25:06;;;;;;;40.98;15.88;;;;;;;-0.13;83.28;99217.43;2298478;77;21265;-65
2020/12/15 04:28:08;;;;;;;42.95;17.55;;;;;;;-0.22;83.51;99221.38;2298987;77;21296;-64
2020/12/15 04:31:10;;;;;;;43.28;16.93;;;;;;;-0.24;83.63;99222.69;2298833;77;21260;-64
2020/12/15 04:34:12;;;;;;;43.33;17.50;;;;;;;-0.23;83.75;99221.83;2299018;77;21285;-64
2020/12/15 04:37:15;;;;;;;44.77;17.45;;;;;;;-0.25;83.65;99222.27;2298741;77;21703;-65
2020/12/15 04:40:17;;;;;;;45.67;17.27;;;;;;;-0.30;83.76;99221.89;2298948;77;21308;-65
2020/12/15 04:43:19;;;;;;;46.98;18.05;;;;;;;-0.32;83.74;99215.91;2298619;77;21728;-65
2020/12/15 04:46:21;;;;;;;49.08;19.82;;;;;;;-0.28;83.87;99221.45;2298768;77;21257;-65
2020/12/15 04:49:23;;;;;;;48.83;18.80;;;;;;;-0.35;83.86;99215.50;2298744;77;21252;-64
2020/12/15 04:52:25;;;;;;;52.67;21.95;;;;;;;-0.31;84.02;99209.45;2298476;77;21284;-65
2020/12/15 04:55:28;;;;;;;46.83;18.82;;;;;;;-0.30;84.12;99201.27;2298637;77;21736;-65
2020/12/15 04:58:30;;;;;;;45.15;19.20;;;;;;;-0.35;83.85;99193.14;2298374;77;21257;-65
2020/12/15 05:01:32;;;;;;;52.17;21.10;;;;;;;-0.43;84.01;99192.81;2298839;77;21280;-65
2020/12/15 05:04:35;;;;;;;50.30;19.32;;;;;;;-0.46;84.26;99191.56;2298738;77;21280;-65
2020/12/15 05:07:37;;;;;;;49.95;20.75;;;;;;;-0.37;84.37;99203.92;2298469;77;21264;-65
2020/12/15 05:10:39;;;;;;;55.40;22.00;;;;;;;-0.28;84.21;99199.55;2298434;77;21271;-65
2020/12/15 05:13:41;;;;;;;50.48;19.48;;;;;;;-0.21;84.05;99198.61;2298547;77;21241;-65
2020/12/15 05:16:43;;;;;;;50.78;20.20;;;;;;;-0.18;83.89;99198.12;2298742;77;21252;-64
2020/12/15 05:19:45;;;;;;;52.93;21.48;;;;;;;-0.19;83.72;99197.72;2298584;77;21716;-65
2020/12/15 05:22:47;;;;;;;50.15;19.80;;;;;;;-0.26;83.66;99206.40;2298424;77;21264;-64
2020/12/15 05:25:49;;;;;;;51.80;20.72;;;;;;;-0.21;83.96;99210.20;2299667;77;21265;-65
2020/12/15 05:28:51;;;;;;;47.78;18.77;;;;;;;-0.12;84.03;99213.11;2306229;77;21688;-64
2020/12/15 05:31:53;;;;;;;51.58;20.85;;;;;;;-0.10;83.70;99209.66;2305945;77;21292;-65
2020/12/15 05:34:56;;;;;;;56.88;22.22;;;;;;;-0.11;83.66;99213.09;2306350;77;21146;-65
2020/12/15 05:37:58;;;;;;;55.20;21.33;;;;;;;-0.09;83.64;99213.92;2306290;77;21672;-65
2020/12/15 05:41:00;;;;;;;53.08;21.97;;;;;;;-0.14;83.55;99210.55;2305771;77;21114;-65
2020/12/15 05:44:02;;;;;;;50.90;20.52;;;;;;;-0.12;83.73;99221.69;2305842;77;21620;-64
2020/12/15 05:47:04;;;;;;;51.70;20.92;;;;;;;-0.16;83.47;99217.88;2305845;77;21252;-64
2020/12/15 05:50:06;;;;;;;55.80;22.20;;;;;;;-0.21;83.52;99218.78;2305938;77;21300;-64
2020/12/15 05:53:08;;;;;;;55.92;22.70;;;;;;;-0.29;83.60;99219.73;2306083;77;21252;-65
2020/12/15 05:56:10;;;;;;;54.40;21.20;;;;;;;-0.39;83.61;99218.98;2306026;77;21269;-64
2020/12/15 05:59:18;;;;;;;53.23;22.60;;;;;;;-0.41;83.86;99215.13;2305889;77;21256;-64
2020/12/15 06:02:18;;;;;;;52.40;21.05;;;;;;;-0.42;83.93;99222.43;2305332;77;21130;-64
2020/12/15 06:05:20;;;;;;;54.03;21.12;;;;;;;-0.29;84.19;99229.60;2306314;77;21272;-65
2020/12/15 06:08:22;;;;;;;54.10;21.35;;;;;;;-0.25;83.88;99233.02;2306068;77;21249;-64
2020/12/15 06:11:24;;;;;;;58.10;23.90;;;;;;;-0.24;83.70;99236.87;2306143;77;21281;-64
2020/12/15 06:14:27;;;;;;;61.20;24.72;;;;;;;-0.25;83.78;99225.28;2274848;77;21327;-65
2020/12/15 06:17:29;;;;;;;70.42;28.10;;;;;;;-0.17;83.87;99228.64;2306072;77;21273;-65
2020/12/15 06:20:32;;;;;;;65.85;26.42;;;;;;;-0.10;83.78;99226.41;2305746;77;21268;-64
2020/12/15 06:23:34;;;;;;;58.40;23.83;;;;;;;-0.12;83.68;99229.43;2306313;77;21256;-64
2020/12/15 06:26:36;;;;;;;65.90;26.73;;;;;;;-0.17;83.58;99223.48;2303232;77;21280;-64
2020/12/15 06:29:38;;;;;;;71.85;29.80;;;;;;;-0.24;83.74;99231.71;2298877;77;21268;-65
2020/12/15 06:32:40;;;;;;;63.45;25.90;;;;;;;-0.27;83.89;99231.75;2298410;77;21264;-65
2020/12/15 06:35:42;;;;;;;50.85;19.60;;;;;;;-0.25;83.87;99230.44;2298431;77;21704;-64
2020/12/15 06:38:44;;;;;;;50.65;20.65;;;;;;;-0.30;83.82;99228.33;2298689;77;21295;-65
2020/12/15 06:41:46;;;;;;;54.20;22.98;;;;;;;-0.43;84.02;99223.73;2298326;77;21729;-64
2020/12/15 06:44:48;;;;;;;52.35;21.90;;;;;;;-0.53;84.08;99220.42;2298392;77;21245;-65
2020/12/15 06:47:50;;;;;;;55.10;24.55;;;;;;;-0.57;84.47;99221.31;2298902;77;21269;-65
2020/12/15 06:50:52;;;;;;;57.45;23.20;;;;;;;-0.57;84.53;99225.18;2298478;77;21245;-64
2020/12/15 06:53:55;;;;;;;55.88;22.93;;;;;;;-0.56;84.86;99226.87;2298598;77;21142;-64
2020/12/15 06:56:57;;;;;;;55.75;22.87;;;;;;;-0.58;84.70;99228.62;2298375;77;21264;-64
2020/12/15 06:59:59;;;;;;;56.90;22.73;;;;;;;-0.59;84.76;99230.34;2298327;77;21257;-64
2020/12/15 07:03:02;;;;;;;61.50;25.65;;;;;;;-0.57;84.88;99229.05;2298616;77;21299;-64
2020/12/15 07:06:06;;;;;;;58.30;24.30;;;;;;;-0.57;84.90;99227.76;2298620;77;21295;-64
2020/12/15 07:09:09;;;;;;;61.40;25.37;;;;;;;-0.52;84.89;99227.27;2298318;77;21345;-64
2020/12/15 07:12:11;;;;;;;65.47;26.30;;;;;;;-0.51;85.06;99227.69;2298464;77;21573;-64
2020/12/15 07:15:13;;;;;;;65.10;26.77;;;;;;;-0.51;84.97;99225.11;2277131;77;21685;-65
2020/12/15 07:18:16;;;;;;;67.47;27.02;;;;;;;-0.44;85.10;99219.48;2277052;77;21264;-64
2020/12/15 07:21:19;;;;;;;63.40;26.35;;;;;;;-0.39;85.22;99223.72;2298275;77;21580;-65
2020/12/15 07:24:22;;;;;;;67.12;26.93;;;;;;;-0.36;85.12;99238.27;2298493;77;21257;-64
2020/12/15 07:27:24;;;;;;;60.75;25.57;;;;;;;-0.30;85.30;99225.76;2293012;77;21698;-65
2020/12/15 07:30:26;;;;;;;65.80;26.82;;;;;;;-0.38;85.22;99209.94;2288960;78;21297;-65
2020/12/15 07:33:28;;;;;;;63.58;27.75;;;;;;;-0.26;85.14;99230.02;2288652;78;21111;-65
2020/12/15 07:36:34;;;;;;;65.85;27.10;;;;;;;-0.15;85.25;99233.78;2288532;78;21257;-65
2020/12/15 07:39:36;;;;;;;63.08;26.20;;;;;;;-0.05;84.97;99236.22;2288705;78;21276;-65
2020/12/15 07:42:38;;;;;;;63.33;25.20;;;;;;;0.01;84.89;99237.04;2288742;78;21578;-65
2020/12/15 07:45:40;;;;;;;67.62;27.15;;;;;;;0.07;84.82;99236.55;2289152;78;21274;-64
2020/12/15 07:48:42;;;;;;;64.95;26.77;;;;;;;0.20;84.83;99235.93;2288569;78;21131;-65
2020/12/15 07:51:44;;;;;;;62.50;26.68;;;;;;;0.19;84.60;99232.95;2288951;78;21689;-65
2020/12/15 07:54:47;;;;;;;60.10;26.00;;;;;;;0.16;84.54;99220.09;2288643;78;21256;-65
2020/12/15 07:57:49;;;;;;;59.63;24.85;;;;;;;0.16;84.63;99223.97;2288890;78;21141;-65
2020/12/15 08:00:51;;;;;;;59.05;24.32;;;;;;;0.15;84.66;99222.25;2288582;78;21143;-64
2020/12/15 08:03:55;;;;;;;56.90;22.67;;;;;;;0.23;84.65;99224.73;2288746;78;21253;-65
2020/12/15 08:06:57;;;;;;;62.58;24.37;;;;;;;0.27;84.52;99230.27;2288634;78;21566;-64
2020/12/15 08:10:00;;;;;;;61.23;25.68;;;;;;;0.34;84.68;99237.94;2289116;78;21296;-65
2020/12/15 08:13:03;;;;;;;59.10;23.90;;;;;;;0.43;84.54;99237.38;2288595;78;21131;-65
2020/12/15 08:16:06;;;;;;;61.68;24.12;;;;;;;0.55;84.71;99233.77;2288424;78;21131;-65
2020/12/15 08:19:08;;;;;;;54.88;22.13;;;;;;;0.60;84.27;99235.41;2288711;78;21561;-65
2020/12/15 08:22:10;;;;;;;;;;;;;;;0.68;84.15;99240.03;2291281;78;21131;-64
2020/12/15 08:25:13;;;;;;;52.88;21.15;;;;;;;0.69;83.91;99231.87;2289090;78;20142;-64
2020/12/15 08:28:20;;;;;;;60.05;24.10;;;;;;;0.74;83.99;99233.09;2288567;77;21151;-65
2020/12/15 08:31:22;;;;;;;113.05;41.45;;;;;;;0.72;83.82;99244.73;2288958;78;21254;-65
2020/12/15 08:34:24;;;;;;;58.95;24.50;;;;;;;0.79;84.01;99248.94;2288600;78;21111;-65
2020/12/15 08:37:26;;;;;;;56.73;24.05;;;;;;;0.89;83.90;99257.41;2288848;78;21313;-65
2020/12/15 08:40:28;;;;;;;61.75;26.40;;;;;;;0.96;83.50;99256.44;2288667;78;21550;-64
2020/12/15 08:43:30;;;;;;;59.58;27.20;;;;;;;0.92;83.45;99254.78;2289085;78;21269;-64
2020/12/15 08:46:33;;;;;;;55.40;23.87;;;;;;;1.00;83.80;99261.11;2288527;78;21288;-64
2020/12/15 08:49:37;;;;;;;57.98;25.80;;;;;;;1.17;83.75;99259.56;2289072;78;21269;-64
2020/12/15 08:52:39;;;;;;;56.20;24.95;;;;;;;1.30;83.44;99258.93;2288532;78;21202;-65
2020/12/15 08:55:44;;;;;;;55.10;22.93;;;;;;;1.36;83.33;99260.11;2288431;78;21269;-64
2020/12/15 08:58:46;;;;;;;57.98;24.40;;;;;;;1.46;82.88;99259.07;2288755;78;21293;-65
2020/12/15 09:01:49;;;;;;;55.98;23.12;;;;;;;1.53;82.88;99252.08;2288775;78;21281;-64
2020/12/15 09:04:51;;;;;;;64.10;25.92;;;;;;;1.53;81.91;99251.63;2288683;78;21293;-64
2020/12/15 09:07:54;;;;;;;82.95;31.80;;;;;;;1.45;82.14;99259.09;2288575;78;21126;-64
2020/12/15 09:10:56;;;;;;;65.65;27.65;;;;;;;1.42;82.48;99263.03;2288999;78;21289;-65
2020/12/15 09:13:59;;;;;;;68.28;27.90;;;;;;;1.46;82.62;99261.66;2288601;78;21083;-64
2020/12/15 09:17:03;;;;;;;82.08;35.88;;;;;;;1.47;82.37;99259.49;2288709;78;21119;-64
2020/12/15 09:20:06;;;;;;;72.05;29.25;;;;;;;1.54;82.55;99262.84;2288919;78;21130;-64
2020/12/15 09:23:12;;;;;;;62.13;25.32;;;;;;;1.62;82.48;99258.81;2260326;78;21717;-64
2020/12/15 09:26:20;;;;;;;56.75;25.17;;;;;;;1.66;82.41;99252.27;2288437;78;21115;-65
2020/12/15 09:29:29;;;;;;;58.83;23.65;;;;;;;1.64;81.98;99249.28;2312744;77;21593;-64
2020/12/15 09:32:35;;;;;;;55.38;23.32;;;;;;;1.68;82.03;99240.17;2312760;77;21094;-64
2020/12/15 09:35:39;;;;;;;53.17;22.67;;;;;;;1.58;81.47;99234.76;2312917;77;21268;-65
2020/12/15 09:38:53;;;;;;;51.68;22.98;;;;;;;1.53;81.58;99234.81;2312879;77;21236;-65
2020/12/15 09:42:02;;;;;;;53.90;23.60;;;;;;;1.52;82.12;99235.72;2312805;77;21707;-64
2020/12/15 09:45:07;;;;;;;47.85;21.97;;;;;;;1.62;81.94;99235.55;2312785;77;21283;-64
2020/12/15 09:48:23;;;;;;;49.08;22.25;;;;;;;1.51;81.49;99234.00;2312768;77;21220;-64
2020/12/15 09:51:28;;;;;;;48.75;21.90;;;;;;;1.60;82.07;99225.23;2312781;77;21260;-65
2020/12/15 09:54:34;;;;;;;51.88;23.27;;;;;;;1.68;81.64;99222.49;2312760;77;21079;-65
2020/12/15 09:57:41;;;;;;;46.53;20.75;;;;;;;1.68;81.59;99225.95;2311929;77;21581;-64
2020/12/15 10:04:16;;;;;;;48.70;20.70;;;;;;;1.66;81.60;99219.09;2312771;77;21240;-64
2020/12/15 10:07:21;;;;;;;49.65;21.87;;;;;;;1.69;82.02;99215.16;2312709;77;21142;-65
2020/12/15 10:10:26;;;;;;;52.10;22.50;;;;;;;1.87;81.33;99214.81;2312804;77;21696;-65
2020/12/15 10:13:40;;;;;;;54.95;23.35;;;;;;;1.96;81.44;99207.30;2312835;77;21750;-65
2020/12/15 10:16:47;;;;;;;49.58;24.07;;;;;;;2.05;81.49;99197.21;2312796;77;21099;-64
2020/12/15 10:19:54;;;;;;;50.05;22.30;;;;;;;2.23;81.28;99200.72;2313223;77;21707;-65
2020/12/15 10:22:59;;;;;;;52.45;24.00;;;;;;;2.39;80.99;99206.87;2312533;77;21150;-64
2020/12/15 10:26:06;;;;;;;;;;;;;;;2.35;80.58;99204.77;2316009;77;21264;-64
2020/12/15 10:29:12;;;;;;;47.90;20.68;;;;;;;2.28;80.58;99197.18;2300531;77;20218;-64
2020/12/15 10:32:24;;;;;;;49.08;21.25;;;;;;;2.29;80.46;99198.44;2298299;77;21256;-65
2020/12/15 10:35:27;;;;;;;49.13;23.27;;;;;;;2.32;79.98;99194.48;2298219;77;21272;-65
2020/12/15 10:38:31;;;;;;;50.30;22.98;;;;;;;2.35;80.79;99199.59;2298396;77;21123;-64
2020/12/15 10:41:39;;;;;;;51.73;22.73;;;;;;;2.45;80.31;99193.78;2285757;77;21138;-65
2020/12/15 10:44:43;;;;;;;49.77;23.52;;;;;;;2.51;80.14;99189.75;2297321;77;21130;-64
2020/12/15 10:47:50;;;;;;;50.05;23.22;;;;;;;2.58;80.47;99187.43;2298211;77;21110;-65
2020/12/15 10:51:00;;;;;;;50.80;22.87;;;;;;;2.72;80.28;99192.30;2297291;77;21138;-65
2020/12/15 10:54:07;;;;;;;51.75;24.52;;;;;;;2.89;79.83;99195.80;2274154;77;21118;-65
2020/12/15 10:57:13;;;;;;;50.17;22.95;;;;;;;2.90;79.75;99197.94;2281324;77;21115;-65
2020/12/15 11:00:36;;;;;;;51.08;22.90;;;;;;;2.80;79.62;99191.27;2298185;77;21274;-65
2020/12/15 11:03:42;;;;;;;52.90;25.47;;;;;;;2.60;79.61;99190.86;2298470;77;21554;-65
2020/12/15 11:06:58;;;;;;;51.80;23.20;;;;;;;2.57;80.19;99184.87;2298537;77;21126;-64
2020/12/15 11:09:58;;;;;;;47.65;22.65;;;;;;;2.55;79.79;99188.80;2297925;77;21157;-64
2020/12/15 11:13:05;;;;;;;51.70;24.77;;;;;;;2.47;80.05;99184.68;2298489;77;21582;-65
2020/12/15 11:16:20;;;;;;;49.95;22.82;;;;;;;2.44;80.44;99184.30;2298565;77;21276;-65
2020/12/15 11:19:29;;;;;;;47.90;21.55;;;;;;;2.42;80.37;99186.92;2298459;77;21264;-64
2020/12/15 11:22:43;;;;;;;49.60;24.43;;;;;;;2.49;80.43;99182.92;2298563;77;21579;-64
2020/12/15 11:25:43;;;;;;;51.02;23.62;;;;;;;2.69;80.94;99167.77;2296137;77;21716;-64
2020/12/15 11:28:46;;;;;;;49.40;22.77;;;;;;;2.93;80.23;99174.53;2298370;77;21142;-64
2020/12/15 11:31:51;;;;;;;46.58;22.25;;;;;;;2.95;79.65;99163.70;2298624;77;21367;-65
2020/12/15 11:34:55;;;;;;;49.08;22.37;;;;;;;2.94;79.83;99169.77;2298722;77;21260;-65
2020/12/15 11:37:58;;;;;;;50.12;22.60;;;;;;;3.10;79.93;99170.24;2277239;77;21264;-64
2020/12/15 11:41:02;;;;;;;55.17;24.18;;;;;;;3.33;79.95;99175.30;2298372;77;21157;-65
2020/12/15 11:44:06;;;;;;;51.73;23.65;;;;;;;3.55;79.29;99167.36;2298450;77;21257;-65
2020/12/15 11:47:09;;;;;;;49.10;23.12;;;;;;;3.53;78.82;99159.20;2298679;77;21146;-65
2020/12/15 11:50:13;;;;;;;52.80;25.40;;;;;;;3.49;78.28;99164.07;2298658;77;21585;-64
2020/12/15 11:53:16;;;;;;;49.85;22.87;;;;;;;3.57;78.36;99157.78;2298677;77;21143;-65
2020/12/15 11:56:25;;;;;;;50.08;23.25;;;;;;;3.47;77.78;99160.22;2298572;77;21704;-64
2020/12/15 11:59:33;;;;;;;50.15;23.15;;;;;;;3.27;78.14;99161.58;2298414;77;21507;-65
2020/12/15 12:02:38;;;;;;;52.38;23.95;;;;;;;3.26;78.36;99161.63;2298512;77;21190;-64
2020/12/15 12:05:40;;;;;;;;;;;;;;;3.12;78.62;99153.77;2301167;77;21126;-65
2020/12/15 12:08:48;;;;;;;52.25;23.07;;;;;;;2.98;78.65;99158.91;2298390;77;20135;-65
2020/12/15 12:11:51;;;;;;;51.28;24.12;;;;;;;3.01;79.30;99153.18;2298650;77;21248;-64
2020/12/15 12:14:54;;;;;;;53.25;24.35;;;;;;;3.06;79.27;99145.28;2298449;77;21249;-64
2020/12/15 12:18:00;;;;;;;53.10;24.02;;;;;;;3.10;79.47;99138.71;2298403;77;21118;-65
2020/12/15 12:21:04;;;;;;;53.95;23.27;;;;;;;3.09;79.21;99137.45;2298673;77;21685;-65
2020/12/15 12:24:06;;;;;;;51.63;23.85;;;;;;;3.06;79.33;99142.69;2298386;77;21277;-64
2020/12/15 12:27:09;;;;;;;50.38;23.20;;;;;;;3.11;79.65;99141.69;2298169;77;21300;-64
2020/12/15 12:30:12;;;;;;;;;;;;;;;3.09;79.51;99133.11;2291705;78;21642;-65
2020/12/15 12:33:14;;;;;;;47.60;21.30;;;;;;;3.15;79.49;99133.41;2260618;78;20234;-65
2020/12/15 12:36:17;;;;;;;49.10;23.22;;;;;;;3.09;79.59;99130.98;2288598;78;21123;-65
2020/12/15 12:39:25;;;;;;;52.08;23.05;;;;;;;3.07;79.60;99122.38;2289090;78;21265;-65
2020/12/15 12:42:27;;;;;;;51.10;23.12;;;;;;;3.04;79.72;99132.37;2288451;78;21301;-65
2020/12/15 12:45:29;;;;;;;48.02;23.90;;;;;;;3.07;79.89;99131.44;2288554;78;21138;-65
2020/12/15 12:48:31;;;;;;;51.58;23.85;;;;;;;3.21;79.92;99129.80;2288536;78;21268;-64
2020/12/15 12:51:33;;;;;;;50.28;23.15;;;;;;;3.41;79.84;99120.20;2288971;78;21261;-65
2020/12/15 12:54:36;;;;;;;48.80;22.35;;;;;;;3.62;79.90;99115.72;2288610;78;21325;-65
2020/12/15 12:57:38;;;;;;;48.78;22.02;;;;;;;3.86;79.64;99124.14;2288703;78;21562;-64
2020/12/15 13:00:40;;;;;;;44.67;20.90;;;;;;;4.06;78.37;99114.02;2288859;78;21269;-65
2020/12/15 13:03:42;;;;;;;47.48;21.57;;;;;;;4.14;78.68;99117.23;2288692;78;21559;-64
2020/12/15 13:06:47;;;;;;;43.38;19.48;;;;;;;4.19;78.37;99113.66;2289059;78;21265;-65
2020/12/15 13:09:49;;;;;;;44.93;20.80;;;;;;;4.12;78.64;99116.45;2288387;78;21095;-64
2020/12/15 13:12:51;;;;;;;45.95;20.08;;;;;;;4.09;77.89;99110.48;2289045;78;21278;-65
2020/12/15 13:15:53;;;;;;;44.63;20.20;;;;;;;3.96;78.27;99113.89;2288822;78;21701;-65
2020/12/15 13:18:55;;;;;;;49.27;20.48;;;;;;;3.78;78.41;99112.23;2288550;78;21122;-65
2020/12/15 13:21:58;;;;;;;45.38;20.25;;;;;;;3.75;78.76;99105.84;2289017;78;21146;-65
2020/12/15 13:25:03;;;;;;;47.05;22.40;;;;;;;3.78;78.71;99113.53;2288684;78;21582;-65
2020/12/15 13:28:05;;;;;;;50.30;22.17;;;;;;;3.72;78.99;99115.02;2290981;77;21285;-64
2020/12/15 13:31:08;;;;;;;45.30;20.82;;;;;;;3.70;78.99;99115.95;2298919;77;21269;-65
2020/12/15 13:34:11;;;;;;;46.37;21.70;;;;;;;3.62;78.95;99116.14;2298539;77;21574;-65
2020/12/15 13:37:13;;;;;;;46.92;22.22;;;;;;;3.64;79.21;99110.48;2298821;77;21126;-65
2020/12/15 13:40:16;;;;;;;48.33;20.72;;;;;;;3.54;78.95;99112.48;2298404;77;21265;-64
2020/12/15 13:43:18;;;;;;;47.75;20.35;;;;;;;3.44;78.85;99107.14;2298410;77;21126;-65
2020/12/15 13:46:23;;;;;;;50.33;22.80;;;;;;;3.35;79.34;99110.84;2298462;77;21276;-64
2020/12/15 13:49:27;;;;;;;50.10;21.87;;;;;;;3.33;79.39;99114.36;2296343;77;21151;-65
2020/12/15 13:52:29;;;;;;;47.73;22.58;;;;;;;3.21;79.44;99114.25;2298556;77;21170;-65
2020/12/15 13:55:31;;;;;;;47.15;21.73;;;;;;;3.09;79.42;99103.30;2298951;77;21280;-65
2020/12/15 13:58:33;;;;;;;49.80;22.27;;;;;;;3.04;79.62;99106.45;2298676;77;21244;-65
2020/12/15 14:01:35;;;;;;;49.05;21.33;;;;;;;2.94;79.78;99111.05;2298496;77;21712;-65
2020/12/15 14:04:37;;;;;;;49.27;21.90;;;;;;;2.81;79.87;99108.33;2298585;77;21759;-65
2020/12/15 14:07:42;;;;;;;45.33;21.25;;;;;;;2.72;80.21;99110.70;2298297;77;21248;-64
2020/12/15 14:10:44;;;;;;;51.77;23.80;;;;;;;2.73;80.32;99110.25;2298532;77;21700;-64